Bright Ocean — HOGQ — position and weather

sailwx.info

Track history (hours):
 
Tides and Currents Weather Stations Pressure Air Temp Water Temp Dewpoint Dewpoint Depression Visibility Wind Speed Wind Dir Waves Ship Positions

Bright Ocean

Last reported at 2016-Jun-11 02:13 UTC. Time now 2016-Jun-27 20:33 UTC.
Position N 34°34' E 139°11'.
Warning: this ship's position is 16 days out of date.

Length 178 m; draft 7.1 m.

Type: Cargo ship. MMSI: 373816000.

Date/timePositionNaut miles runAvg speedWind from/ knotsBaromVisibWave heightAir tempDewpointWater temp
2016-Jun-11 02:13N 34°34' E 139°11'1314.4
2016-Jun-11 01:21N 34°38' E 139°25'1113.8
2016-Jun-11 00:33N 34°42' E 139°38'1414.2
2016-Jun-10 23:33N 34°47' E 139°54'1414.3
2016-Jun-10 22:33N 34°54' E 140°10'1414.2
2016-Jun-10 21:33N 35°01' E 140°24'1413.9
2016-Jun-10 20:33N 35°09' E 140°38'1413.9
2016-Jun-10 19:33N 35°20' E 140°49'1413.9
2016-Jun-10 18:33N 35°31' E 140°59'1313.0
2016-Jun-10 17:33N 35°43' E 141°06'1414.0
2016-Jun-10 16:33N 35°57' E 141°08'1414.6
2016-Jun-10 15:33N 36°11' E 141°10'1514.5
2016-Jun-10 14:33N 36°26' E 141°12'1414.3
2016-Jun-10 13:34N 36°40' E 141°14'1413.9
2016-Jun-10 12:33N 36°54' E 141°17'1313.4
2016-Jun-10 11:33N 37°07' E 141°19'  
2016-Jun-08 02:06N 36°52' E 141°16'2613.2
2016-Jun-08 00:07N 36°26' E 141°12'712.7
2016-Jun-07 23:33N 36°18' E 141°11'1312.7
2016-Jun-07 22:31N 36°05' E 141°09'1212.6
2016-Jun-07 21:34N 35°54' E 141°07'1313.0
2016-Jun-07 20:34N 35°41' E 141°06'1312.8
2016-Jun-07 19:33N 35°30' E 140°57'1313.1
2016-Jun-07 18:32N 35°19' E 140°47'1313.2
2016-Jun-07 17:34N 35°09' E 140°38'1413.0
2016-Jun-07 16:31N 35°01' E 140°24'1212.9
2016-Jun-07 15:33N 34°55' E 140°11'1312.7
2016-Jun-07 14:34N 34°49' E 139°57'1211.9
2016-Jun-07 13:33N 34°53' E 139°43'1212.0
2016-Jun-07 12:33N 35°05' E 139°43'1211.6
2016-Jun-07 11:33N 35°16' E 139°46'1010.3
2016-Jun-07 10:33N 35°26' E 139°47'1312.6
2016-Jun-07 09:33N 35°33' E 139°60'5 4.8
2016-Jun-07 08:26N 35°36' E 140°05'0 0.0
2016-Jun-07 07:23N 35°36' E 140°05'0 0.0
2016-Jun-07 06:26N 35°36' E 140°05'0 0.0
2016-Jun-07 05:32N 35°36' E 140°05'0 0.0
2016-Jun-07 04:20N 35°36' E 140°05'0 0.0
2016-Jun-07 03:08N 35°36' E 140°05'0 0.0
2016-Jun-07 02:32N 35°36' E 140°05'0 0.0
2016-Jun-07 01:32N 35°36' E 140°05'0 0.0
2016-Jun-07 00:32N 35°36' E 140°05'0 0.0
2016-Jun-06 23:20N 35°36' E 140°05'0 0.0
2016-Jun-06 22:33N 35°36' E 140°05'6 6.1
2016-Jun-06 21:33N 35°33' E 139°59'2 1.8
2016-Jun-06 20:28N 35°31' E 139°58'0 0.0
2016-Jun-06 19:28N 35°31' E 139°58'0 0.0
2016-Jun-06 18:31N 35°31' E 139°58'0 0.0
2016-Jun-06 17:31N 35°31' E 139°58'0 0.0
2016-Jun-06 16:29N 35°31' E 139°58'0 0.0
2016-Jun-06 15:29N 35°31' E 139°58'0 0.0
2016-Jun-06 14:26N 35°31' E 139°58'0 0.0
2016-Jun-06 13:28N 35°31' E 139°58'0 0.0
2016-Jun-06 12:28N 35°31' E 139°58'0 0.0
2016-Jun-06 11:10N 35°31' E 139°58'0 0.0
2016-Jun-06 10:29N 35°31' E 139°58'0 0.0
2016-Jun-06 09:29N 35°31' E 139°58'0 0.0
2016-Jun-06 08:19N 35°31' E 139°58'0 0.0
2016-Jun-06 07:29N 35°31' E 139°58'0 0.0
2016-Jun-06 06:31N 35°31' E 139°58'0 0.0
2016-Jun-06 05:29N 35°31' E 139°58'0 0.0
2016-Jun-06 04:31N 35°31' E 139°58'0 0.0
2016-Jun-06 03:31N 35°31' E 139°58'0 0.0
2016-Jun-06 02:28N 35°31' E 139°58'0 0.0
2016-Jun-06 01:32N 35°31' E 139°58'0 0.0
2016-Jun-06 00:31N 35°31' E 139°58'0 0.0
2016-Jun-05 23:32N 35°31' E 139°58'0 0.0
2016-Jun-05 22:29N 35°31' E 139°58'0 0.0
2016-Jun-05 21:29N 35°31' E 139°58'0 0.0
2016-Jun-05 20:31N 35°31' E 139°58'0 0.0
2016-Jun-05 19:31N 35°31' E 139°58'0 0.0
2016-Jun-05 18:32N 35°31' E 139°58'0 0.0
2016-Jun-05 17:31N 35°31' E 139°58'0 0.1
2016-Jun-05 16:31N 35°31' E 139°58'0 0.0
2016-Jun-05 15:31N 35°31' E 139°58'6 6.6
2016-Jun-05 14:34N 35°28' E 139°51'1211.6
2016-Jun-05 13:33N 35°18' E 139°45'1010.3
2016-Jun-05 12:34N 35°08' E 139°46'8 7.8
2016-Jun-05 11:34N 35°01' E 139°41'9 9.2
2016-Jun-05 10:33N 34°52' E 139°39'1512.6
2016-Jun-05 09:22N 34°51' E 139°20'1212.4
2016-Jun-05 08:25N 34°42' E 139°12'1112.6
2016-Jun-05 07:32N 34°33' E 139°04'  
Track history (hours):
 
Tides and Currents Weather Stations Pressure Air Temp Water Temp Dewpoint Dewpoint Depression Visibility Wind Speed Wind Dir Waves Ship Positions

Bright Ocean

Last reported at 2016-Jun-11 02:13 UTC. Time now 2016-Jun-27 20:33 UTC.
Position N 34°34' E 139°11'.
Warning: this ship's position is 16 days out of date.

Length 178 m; draft 7.1 m.

Type: Cargo ship. MMSI: 373816000.

Date/timePositionNaut miles runAvg speedWind from/ knotsBaromVisibWave heightAir tempDewpointWater temp
2016-Jun-11 02:13N 34°34' E 139°11'1314.4
2016-Jun-11 01:21N 34°38' E 139°25'1113.8
2016-Jun-11 00:33N 34°42' E 139°38'1414.2
2016-Jun-10 23:33N 34°47' E 139°54'1414.3
2016-Jun-10 22:33N 34°54' E 140°10'1414.2
2016-Jun-10 21:33N 35°01' E 140°24'1413.9
2016-Jun-10 20:33N 35°09' E 140°38'1413.9
2016-Jun-10 19:33N 35°20' E 140°49'1413.9
2016-Jun-10 18:33N 35°31' E 140°59'1313.0
2016-Jun-10 17:33N 35°43' E 141°06'1414.0
2016-Jun-10 16:33N 35°57' E 141°08'1414.6
2016-Jun-10 15:33N 36°11' E 141°10'1514.5
2016-Jun-10 14:33N 36°26' E 141°12'1414.3
2016-Jun-10 13:34N 36°40' E 141°14'1413.9
2016-Jun-10 12:33N 36°54' E 141°17'1313.4
2016-Jun-10 11:33N 37°07' E 141°19'  
2016-Jun-08 02:06N 36°52' E 141°16'2613.2
2016-Jun-08 00:07N 36°26' E 141°12'712.7
2016-Jun-07 23:33N 36°18' E 141°11'1312.7
2016-Jun-07 22:31N 36°05' E 141°09'1212.6
2016-Jun-07 21:34N 35°54' E 141°07'1313.0
2016-Jun-07 20:34N 35°41' E 141°06'1312.8
2016-Jun-07 19:33N 35°30' E 140°57'1313.1
2016-Jun-07 18:32N 35°19' E 140°47'1313.2
2016-Jun-07 17:34N 35°09' E 140°38'1413.0
2016-Jun-07 16:31N 35°01' E 140°24'1212.9
2016-Jun-07 15:33N 34°55' E 140°11'1312.7
2016-Jun-07 14:34N 34°49' E 139°57'1211.9
2016-Jun-07 13:33N 34°53' E 139°43'1212.0
2016-Jun-07 12:33N 35°05' E 139°43'1211.6
2016-Jun-07 11:33N 35°16' E 139°46'1010.3
2016-Jun-07 10:33N 35°26' E 139°47'1312.6
2016-Jun-07 09:33N 35°33' E 139°60'5 4.8
2016-Jun-07 08:26N 35°36' E 140°05'0 0.0
2016-Jun-07 07:23N 35°36' E 140°05'0 0.0
2016-Jun-07 06:26N 35°36' E 140°05'0 0.0
2016-Jun-07 05:32N 35°36' E 140°05'0 0.0
2016-Jun-07 04:20N 35°36' E 140°05'0 0.0
2016-Jun-07 03:08N 35°36' E 140°05'0 0.0
2016-Jun-07 02:32N 35°36' E 140°05'0 0.0
2016-Jun-07 01:32N 35°36' E 140°05'0 0.0
2016-Jun-07 00:32N 35°36' E 140°05'0 0.0
2016-Jun-06 23:20N 35°36' E 140°05'0 0.0
2016-Jun-06 22:33N 35°36' E 140°05'6 6.1
2016-Jun-06 21:33N 35°33' E 139°59'2 1.8
2016-Jun-06 20:28N 35°31' E 139°58'0 0.0
2016-Jun-06 19:28N 35°31' E 139°58'0 0.0
2016-Jun-06 18:31N 35°31' E 139°58'0 0.0
2016-Jun-06 17:31N 35°31' E 139°58'0 0.0
2016-Jun-06 16:29N 35°31' E 139°58'0 0.0
2016-Jun-06 15:29N 35°31' E 139°58'0 0.0
2016-Jun-06 14:26N 35°31' E 139°58'0 0.0
2016-Jun-06 13:28N 35°31' E 139°58'0 0.0
2016-Jun-06 12:28N 35°31' E 139°58'0 0.0
2016-Jun-06 11:10N 35°31' E 139°58'0 0.0
2016-Jun-06 10:29N 35°31' E 139°58'0 0.0
2016-Jun-06 09:29N 35°31' E 139°58'0 0.0
2016-Jun-06 08:19N 35°31' E 139°58'0 0.0
2016-Jun-06 07:29N 35°31' E 139°58'0 0.0
2016-Jun-06 06:31N 35°31' E 139°58'0 0.0
2016-Jun-06 05:29N 35°31' E 139°58'0 0.0
2016-Jun-06 04:31N 35°31' E 139°58'0 0.0
2016-Jun-06 03:31N 35°31' E 139°58'0 0.0
2016-Jun-06 02:28N 35°31' E 139°58'0 0.0
2016-Jun-06 01:32N 35°31' E 139°58'0 0.0
2016-Jun-06 00:31N 35°31' E 139°58'0 0.0
2016-Jun-05 23:32N 35°31' E 139°58'0 0.0
2016-Jun-05 22:29N 35°31' E 139°58'0 0.0
2016-Jun-05 21:29N 35°31' E 139°58'0 0.0
2016-Jun-05 20:31N 35°31' E 139°58'0 0.0
2016-Jun-05 19:31N 35°31' E 139°58'0 0.0
2016-Jun-05 18:32N 35°31' E 139°58'0 0.0
2016-Jun-05 17:31N 35°31' E 139°58'0 0.1
2016-Jun-05 16:31N 35°31' E 139°58'0 0.0
2016-Jun-05 15:31N 35°31' E 139°58'6 6.6
2016-Jun-05 14:34N 35°28' E 139°51'1211.6
2016-Jun-05 13:33N 35°18' E 139°45'1010.3
2016-Jun-05 12:34N 35°08' E 139°46'8 7.8
2016-Jun-05 11:34N 35°01' E 139°41'9 9.2
2016-Jun-05 10:33N 34°52' E 139°39'1512.6
2016-Jun-05 09:22N 34°51' E 139°20'1212.4
2016-Jun-05 08:25N 34°42' E 139°12'1112.6
2016-Jun-05 07:32N 34°33' E 139°04'  

Dump ship's entire track history